createdAt,value
2017-08-30T00:01:14.092Z,15.37
2017-08-30T00:03:41.931Z,15.36
2017-08-30T00:06:09.739Z,15.37
2017-08-30T00:08:37.556Z,15.33
2017-08-30T00:11:05.362Z,15.32
2017-08-30T00:13:33.157Z,15.28
2017-08-30T00:16:00.984Z,15.25
2017-08-30T00:18:28.787Z,15.24
2017-08-30T00:20:56.668Z,15.22
2017-08-30T00:23:24.461Z,15.24
2017-08-30T00:26:04.006Z,15.28
2017-08-30T00:28:31.784Z,15.34
2017-08-30T00:30:59.639Z,15.27
2017-08-30T00:33:27.451Z,15.23
2017-08-30T00:35:55.272Z,15.19
2017-08-30T00:38:23.096Z,15.17
2017-08-30T00:40:50.988Z,15.14
2017-08-30T00:43:18.865Z,15.16
2017-08-30T00:45:46.734Z,15.14
2017-08-30T00:48:14.646Z,15.08
2017-08-30T00:50:42.488Z,15.02
2017-08-30T00:53:10.389Z,15.00
2017-08-30T00:55:38.252Z,14.97
2017-08-30T00:58:06.143Z,14.97
2017-08-30T01:00:34.023Z,14.97
2017-08-30T01:03:01.934Z,14.97
2017-08-30T01:05:29.807Z,14.97
2017-08-30T01:07:57.728Z,14.98
2017-08-30T01:10:25.460Z,14.97
2017-08-30T01:12:53.352Z,14.90
2017-08-30T01:15:21.199Z,14.84
2017-08-30T01:17:49.037Z,14.87
2017-08-30T01:20:16.940Z,14.87
2017-08-30T01:22:44.772Z,14.82
2017-08-30T01:25:12.726Z,14.80
2017-08-30T01:27:40.565Z,14.79
2017-08-30T01:30:08.460Z,14.78
2017-08-30T01:32:36.284Z,14.78
2017-08-30T01:35:04.165Z,14.72
2017-08-30T01:37:31.984Z,14.68
2017-08-30T01:39:59.836Z,14.62
2017-08-30T01:42:27.713Z,14.57
2017-08-30T01:44:55.555Z,14.55
2017-08-30T01:47:23.425Z,14.56
2017-08-30T01:49:51.262Z,14.55
2017-08-30T01:52:19.145Z,14.52
2017-08-30T01:54:47.040Z,14.47
2017-08-30T01:57:14.924Z,14.47
2017-08-30T01:59:42.792Z,14.46
2017-08-30T02:02:10.689Z,14.47
2017-08-30T02:04:38.522Z,14.50
2017-08-30T02:07:06.351Z,14.51
2017-08-30T02:09:34.208Z,14.50
2017-08-30T02:12:02.031Z,14.42
2017-08-30T02:14:29.914Z,14.30
2017-08-30T02:16:57.758Z,14.28
2017-08-30T02:19:25.541Z,14.24
2017-08-30T02:21:53.406Z,14.23
2017-08-30T02:24:21.290Z,14.28
2017-08-30T02:26:49.046Z,14.32
2017-08-30T02:29:16.888Z,14.28
2017-08-30T02:31:44.659Z,14.21
2017-08-30T02:34:12.414Z,14.21
2017-08-30T02:36:40.292Z,14.20
2017-08-30T02:39:08.026Z,14.15
2017-08-30T02:41:35.904Z,14.18
2017-08-30T02:44:03.740Z,14.24
2017-08-30T02:46:31.621Z,14.25
2017-08-30T02:48:59.452Z,14.24
2017-08-30T02:51:27.281Z,14.23
2017-08-30T02:53:55.054Z,14.23
2017-08-30T02:56:22.889Z,14.21
2017-08-30T02:58:50.768Z,14.11
2017-08-30T03:01:18.608Z,14.04
2017-08-30T03:03:46.483Z,14.05
2017-08-30T03:06:14.305Z,14.05
2017-08-30T03:08:42.192Z,14.01
2017-08-30T03:11:10.034Z,14.09
2017-08-30T03:13:37.872Z,14.18
2017-08-30T03:16:05.728Z,14.22
2017-08-30T03:18:33.605Z,14.13
2017-08-30T03:21:01.561Z,14.09
2017-08-30T03:23:29.402Z,14.00
2017-08-30T03:25:57.192Z,13.97
2017-08-30T03:28:25.025Z,14.03
2017-08-30T03:30:52.907Z,14.04
2017-08-30T03:33:20.753Z,13.98
2017-08-30T03:35:48.540Z,13.99
2017-08-30T03:38:16.388Z,14.02
2017-08-30T03:40:44.295Z,13.99
2017-08-30T03:43:12.046Z,13.94
2017-08-30T03:45:39.879Z,13.91
2017-08-30T03:48:07.760Z,13.80
2017-08-30T03:50:35.579Z,13.79
2017-08-30T03:53:03.451Z,13.81
2017-08-30T03:55:31.280Z,13.81
2017-08-30T03:57:59.192Z,13.82
2017-08-30T04:00:27.047Z,13.79
2017-08-30T04:02:54.928Z,13.79
2017-08-30T04:05:22.765Z,13.82
2017-08-30T04:07:50.682Z,13.80
2017-08-30T04:10:19.273Z,13.73
2017-08-30T04:12:47.116Z,13.68
2017-08-30T04:15:15.070Z,13.68
2017-08-30T04:17:42.928Z,13.60
2017-08-30T04:20:10.871Z,13.61
2017-08-30T04:22:38.701Z,13.65
2017-08-30T04:25:06.534Z,13.66
2017-08-30T04:27:34.410Z,13.61
2017-08-30T04:30:02.335Z,13.62
2017-08-30T04:32:30.185Z,13.70
2017-08-30T04:34:57.981Z,13.71
2017-08-30T04:37:25.758Z,13.68
2017-08-30T04:39:53.491Z,13.64
2017-08-30T04:42:21.291Z,13.73
2017-08-30T04:44:49.044Z,13.86
2017-08-30T04:47:16.816Z,13.95
2017-08-30T04:49:44.579Z,14.00
2017-08-30T04:52:12.443Z,14.12
2017-08-30T04:54:40.189Z,14.24
2017-08-30T04:57:08.017Z,14.38
2017-08-30T04:59:35.752Z,14.66
2017-08-30T05:02:03.471Z,15.00
2017-08-30T05:04:31.251Z,15.29
2017-08-30T05:06:58.983Z,15.41
2017-08-30T05:09:26.794Z,15.40
2017-08-30T05:11:54.529Z,15.29
2017-08-30T05:14:22.314Z,15.18
2017-08-30T05:16:50.040Z,15.10
2017-08-30T05:19:17.819Z,15.10
2017-08-30T05:21:45.566Z,15.14
2017-08-30T05:24:13.348Z,15.27
2017-08-30T05:26:41.100Z,15.43
2017-08-30T05:29:08.824Z,15.45
2017-08-30T05:31:36.609Z,15.49
2017-08-30T05:34:04.409Z,15.57
2017-08-30T05:36:32.196Z,15.71
2017-08-30T05:38:59.941Z,15.83
2017-08-30T05:41:27.765Z,16.06
2017-08-30T05:43:55.518Z,16.32
2017-08-30T05:46:23.318Z,16.48
2017-08-30T05:48:51.096Z,16.60
2017-08-30T05:51:18.894Z,16.70
2017-08-30T05:53:46.639Z,16.79
2017-08-30T05:56:14.416Z,17.04
2017-08-30T05:58:42.176Z,17.36
2017-08-30T06:01:09.993Z,17.67
2017-08-30T06:03:37.807Z,17.84
2017-08-30T06:06:05.581Z,17.85
2017-08-30T06:08:33.407Z,17.85
2017-08-30T06:11:01.155Z,17.88
2017-08-30T06:13:28.931Z,17.97
2017-08-30T06:15:56.708Z,18.03
2017-08-30T06:18:24.493Z,18.05
2017-08-30T06:20:52.240Z,18.06
2017-08-30T06:23:20.048Z,18.12
2017-08-30T06:25:47.784Z,18.21
2017-08-30T06:28:15.520Z,18.34
2017-08-30T06:30:43.317Z,18.44
2017-08-30T06:33:11.116Z,18.55
2017-08-30T06:35:38.941Z,18.67
2017-08-30T06:38:06.676Z,18.83
2017-08-30T06:40:34.465Z,19.02
2017-08-30T06:43:02.198Z,19.25
2017-08-30T06:45:30.031Z,19.48
2017-08-30T06:47:57.774Z,19.71
2017-08-30T06:50:25.571Z,20.01
2017-08-30T06:52:53.320Z,20.30
2017-08-30T06:55:21.062Z,20.43
2017-08-30T06:57:48.860Z,20.46
2017-08-30T07:00:16.597Z,20.56
2017-08-30T07:02:44.369Z,20.66
2017-08-30T07:05:12.124Z,20.79
2017-08-30T07:07:39.922Z,20.96
2017-08-30T07:10:07.679Z,21.17
2017-08-30T07:12:35.445Z,21.40
2017-08-30T07:15:03.219Z,21.64
2017-08-30T07:17:31.010Z,21.83
2017-08-30T07:19:58.761Z,21.95
2017-08-30T07:22:26.540Z,22.07
2017-08-30T07:24:54.256Z,22.23
2017-08-30T07:27:22.077Z,22.41
2017-08-30T07:29:49.810Z,22.56
2017-08-30T07:32:17.533Z,22.63
2017-08-30T07:34:45.323Z,22.71
2017-08-30T07:37:13.081Z,22.73
2017-08-30T07:39:40.856Z,22.76
2017-08-30T07:42:08.598Z,22.91
2017-08-30T07:44:36.409Z,23.04
2017-08-30T07:47:04.194Z,23.15
2017-08-30T07:49:31.985Z,23.19
2017-08-30T07:51:59.733Z,23.41
2017-08-30T07:54:27.552Z,23.49
2017-08-30T07:56:55.313Z,23.55
2017-08-30T07:59:23.153Z,23.79
2017-08-30T08:01:50.904Z,24.02
2017-08-30T08:04:18.649Z,24.08
2017-08-30T08:06:46.466Z,24.11
2017-08-30T08:09:14.211Z,24.30
2017-08-30T08:11:42.009Z,24.52
2017-08-30T08:14:09.770Z,24.67
2017-08-30T08:16:37.602Z,24.75
2017-08-30T08:19:05.457Z,24.94
2017-08-30T08:21:33.264Z,25.23
2017-08-30T08:24:01.119Z,25.31
2017-08-30T08:26:30.032Z,25.40
2017-08-30T08:28:57.892Z,25.44
2017-08-30T08:31:25.701Z,25.41
2017-08-30T08:33:53.559Z,25.39
2017-08-30T08:36:21.452Z,25.51
2017-08-30T08:38:49.298Z,25.72
2017-08-30T08:41:17.143Z,25.94
2017-08-30T08:43:44.937Z,26.02
2017-08-30T08:46:12.679Z,25.88
2017-08-30T08:48:40.487Z,25.85
2017-08-30T08:51:08.235Z,25.99
2017-08-30T08:53:36.053Z,26.32
2017-08-30T08:56:03.783Z,26.39
2017-08-30T08:58:31.590Z,26.58
2017-08-30T09:00:59.379Z,26.81
2017-08-30T09:03:27.267Z,26.90
2017-08-30T09:05:55.133Z,27.05
2017-08-30T09:08:22.880Z,26.95
2017-08-30T09:10:50.656Z,27.02
2017-08-30T09:13:18.516Z,27.12
2017-08-30T09:15:46.415Z,27.37
2017-08-30T09:18:14.256Z,27.41
2017-08-30T09:20:42.111Z,27.24
2017-08-30T09:23:09.959Z,27.10
2017-08-30T09:25:37.884Z,27.04
2017-08-30T09:28:05.749Z,26.88
2017-08-30T09:30:33.648Z,26.74
2017-08-30T09:33:01.509Z,26.75
2017-08-30T09:35:29.388Z,27.03
2017-08-30T09:37:57.268Z,27.06
2017-08-30T09:40:25.133Z,26.94
2017-08-30T09:42:53.064Z,27.00
2017-08-30T09:45:20.939Z,27.39
2017-08-30T09:47:48.847Z,27.75
2017-08-30T09:50:16.781Z,28.04
2017-08-30T09:52:44.677Z,28.05
2017-08-30T09:55:12.442Z,27.77
2017-08-30T09:57:40.271Z,27.66
2017-08-30T10:00:08.132Z,27.70
2017-08-30T10:02:36.028Z,27.69
2017-08-30T10:05:03.871Z,27.69
2017-08-30T10:07:31.781Z,27.79
2017-08-30T10:09:59.779Z,27.74
2017-08-30T10:12:27.675Z,27.85
2017-08-30T10:14:55.545Z,27.83
2017-08-30T10:17:23.467Z,27.55
2017-08-30T10:19:51.324Z,27.55
2017-08-30T10:22:19.137Z,27.72
2017-08-30T10:24:46.950Z,27.72
2017-08-30T10:27:14.842Z,27.85
2017-08-30T10:29:42.721Z,27.92
2017-08-30T10:32:10.572Z,27.99
2017-08-30T10:34:38.463Z,28.09
2017-08-30T10:37:06.242Z,28.27
2017-08-30T10:39:34.151Z,28.30
2017-08-30T10:42:02.031Z,28.11
2017-08-30T10:44:29.917Z,28.06
2017-08-30T10:46:57.776Z,28.20
2017-08-30T10:49:25.613Z,28.31
2017-08-30T10:51:53.458Z,28.55
2017-08-30T10:54:22.184Z,28.74
2017-08-30T10:56:50.099Z,28.78
2017-08-30T10:59:17.942Z,28.72
2017-08-30T11:01:45.777Z,28.92
2017-08-30T11:04:13.653Z,29.00
2017-08-30T11:06:41.706Z,29.11
2017-08-30T11:09:09.465Z,29.15
2017-08-30T11:11:38.061Z,29.14
2017-08-30T11:14:05.842Z,28.98
2017-08-30T11:16:33.642Z,29.14
2017-08-30T11:19:01.507Z,29.24
2017-08-30T11:21:29.463Z,29.15
2017-08-30T11:23:57.318Z,29.00
2017-08-30T11:26:25.212Z,28.98
2017-08-30T11:28:53.056Z,28.84
2017-08-30T11:31:20.937Z,28.96
2017-08-30T11:33:48.831Z,29.27
2017-08-30T11:36:16.576Z,29.42
2017-08-30T11:38:44.359Z,29.27
2017-08-30T11:41:12.120Z,29.01
2017-08-30T11:43:39.933Z,29.09
2017-08-30T11:46:07.745Z,29.22
2017-08-30T11:48:35.552Z,29.13
2017-08-30T11:51:03.341Z,29.39
2017-08-30T11:53:31.113Z,29.74
2017-08-30T11:55:58.858Z,29.88
2017-08-30T11:58:26.716Z,29.84
2017-08-30T12:00:54.455Z,29.71
2017-08-30T12:03:22.242Z,29.45
2017-08-30T12:05:49.986Z,29.25
2017-08-30T12:08:17.739Z,29.00
2017-08-30T12:10:45.549Z,29.12
2017-08-30T12:13:13.301Z,29.42
2017-08-30T12:15:41.086Z,29.57
2017-08-30T12:18:08.842Z,29.63
2017-08-30T12:20:36.708Z,29.50
2017-08-30T12:23:04.483Z,29.16
2017-08-30T12:25:32.312Z,29.09
2017-08-30T12:28:00.120Z,29.38
2017-08-30T12:30:28.114Z,29.53
2017-08-30T12:32:55.901Z,29.58
2017-08-30T12:35:23.744Z,29.41
2017-08-30T12:37:57.164Z,29.18
2017-08-30T12:40:25.005Z,28.99
2017-08-30T12:42:52.863Z,28.82
2017-08-30T12:45:20.755Z,28.95
2017-08-30T12:47:49.145Z,29.23
2017-08-30T12:50:17.074Z,29.63
2017-08-30T12:52:44.884Z,29.86
2017-08-30T12:55:12.762Z,30.11
2017-08-30T12:57:40.587Z,30.00
2017-08-30T13:00:08.377Z,29.72
2017-08-30T13:02:36.184Z,29.58
2017-08-30T13:05:03.980Z,29.58
2017-08-30T13:07:31.889Z,29.67
2017-08-30T13:09:59.744Z,29.75
2017-08-30T13:12:27.571Z,29.68
2017-08-30T13:14:55.354Z,29.57
2017-08-30T13:17:23.151Z,29.70
2017-08-30T13:19:51.022Z,29.85
2017-08-30T13:22:19.009Z,30.16
2017-08-30T13:24:46.866Z,30.20
2017-08-30T13:27:14.633Z,30.18
2017-08-30T13:29:42.536Z,30.18
2017-08-30T13:32:10.355Z,30.14
2017-08-30T13:34:38.160Z,30.01
2017-08-30T13:37:05.917Z,30.09
2017-08-30T13:39:33.733Z,30.24
2017-08-30T13:42:01.490Z,30.24
2017-08-30T13:44:29.276Z,30.06
2017-08-30T13:46:57.147Z,30.02
2017-08-30T13:49:24.956Z,30.06
2017-08-30T13:51:52.700Z,30.11
2017-08-30T13:54:20.662Z,30.00
2017-08-30T13:56:48.414Z,30.05
2017-08-30T13:59:16.360Z,30.15
2017-08-30T14:01:44.241Z,30.22
2017-08-30T14:04:12.108Z,30.19
2017-08-30T14:06:40.029Z,30.09
2017-08-30T14:09:07.896Z,29.94
2017-08-30T14:11:35.810Z,29.85
2017-08-30T14:14:03.668Z,29.78
2017-08-30T14:16:31.593Z,29.70
2017-08-30T14:18:59.445Z,29.62
2017-08-30T14:21:27.410Z,29.65
2017-08-30T14:23:55.153Z,29.74
2017-08-30T14:26:22.989Z,29.72
2017-08-30T14:28:50.873Z,29.55
2017-08-30T14:31:18.803Z,29.44
2017-08-30T14:33:46.674Z,29.36
2017-08-30T14:36:14.577Z,29.42
2017-08-30T14:38:42.322Z,29.44
2017-08-30T14:41:10.180Z,29.39
2017-08-30T14:43:38.126Z,29.32
2017-08-30T14:46:05.961Z,29.28
2017-08-30T14:48:33.850Z,29.33
2017-08-30T14:51:01.703Z,29.25
2017-08-30T14:53:29.630Z,29.17
2017-08-30T14:55:57.494Z,29.10
2017-08-30T14:58:25.385Z,29.15
2017-08-30T15:00:53.248Z,29.19
2017-08-30T15:03:21.134Z,29.37
2017-08-30T15:05:49.024Z,29.44
2017-08-30T15:08:16.913Z,29.45
2017-08-30T15:10:44.784Z,29.41
2017-08-30T15:13:12.700Z,29.23
2017-08-30T15:15:40.574Z,28.98
2017-08-30T15:18:08.501Z,28.68
2017-08-30T15:20:36.417Z,28.45
2017-08-30T15:23:04.334Z,28.33
2017-08-30T15:25:32.231Z,28.31
2017-08-30T15:28:00.088Z,28.38
2017-08-30T15:30:27.964Z,28.38
2017-08-30T15:32:55.834Z,28.41
2017-08-30T15:35:23.780Z,28.54
2017-08-30T15:37:51.609Z,28.68
2017-08-30T15:40:19.540Z,28.77
2017-08-30T15:42:47.404Z,28.85
2017-08-30T15:45:15.295Z,28.87
2017-08-30T15:47:43.185Z,28.92
2017-08-30T15:50:11.145Z,28.81
2017-08-30T15:52:39.017Z,28.72
2017-08-30T15:55:06.987Z,28.62
2017-08-30T15:57:34.860Z,28.51
2017-08-30T16:00:02.736Z,28.42
2017-08-30T16:02:30.627Z,28.40
2017-08-30T16:04:58.489Z,28.41
2017-08-30T16:07:26.307Z,28.38
2017-08-30T16:09:54.106Z,28.29
2017-08-30T16:12:22.015Z,28.20
2017-08-30T16:14:52.125Z,28.19
2017-08-30T16:17:20.340Z,28.13
2017-08-30T16:19:48.209Z,28.02
2017-08-30T16:22:16.183Z,27.96
2017-08-30T16:24:43.922Z,27.92
2017-08-30T16:27:11.724Z,27.81
2017-08-30T16:29:39.488Z,27.65
2017-08-30T16:32:07.376Z,27.52
2017-08-30T16:34:35.209Z,27.38
2017-08-30T16:37:03.002Z,27.29
2017-08-30T16:39:30.774Z,27.26
2017-08-30T16:41:58.622Z,27.20
2017-08-30T16:44:26.485Z,27.17
2017-08-30T16:46:54.322Z,27.10
2017-08-30T16:49:22.207Z,27.11
2017-08-30T16:51:50.060Z,27.07
2017-08-30T16:54:17.949Z,26.99
2017-08-30T16:56:45.808Z,26.92
2017-08-30T16:59:13.697Z,26.90
2017-08-30T17:01:41.602Z,26.90
2017-08-30T17:04:09.447Z,26.89
2017-08-30T17:06:37.380Z,26.77
2017-08-30T17:09:05.343Z,26.69
2017-08-30T17:11:33.312Z,26.55
2017-08-30T17:14:01.181Z,26.52
2017-08-30T17:16:28.988Z,26.48
2017-08-30T17:18:56.916Z,26.49
2017-08-30T17:21:24.847Z,26.45
2017-08-30T17:23:52.626Z,26.38
2017-08-30T17:26:20.521Z,26.34
2017-08-30T17:28:48.365Z,26.27
2017-08-30T17:31:16.285Z,26.23
2017-08-30T17:33:44.129Z,26.15
2017-08-30T17:36:11.941Z,26.09
2017-08-30T17:38:39.669Z,26.03
2017-08-30T17:41:07.493Z,25.98
2017-08-30T17:43:35.281Z,25.96
2017-08-30T17:46:03.140Z,25.91
2017-08-30T17:48:31.042Z,25.85
2017-08-30T17:50:58.902Z,25.76
2017-08-30T17:53:26.707Z,25.71
2017-08-30T17:55:54.475Z,25.68
2017-08-30T17:58:22.335Z,25.66
2017-08-30T18:00:50.076Z,25.61
2017-08-30T18:03:17.898Z,25.55
2017-08-30T18:05:45.652Z,25.51
2017-08-30T18:08:13.447Z,25.43
2017-08-30T18:10:41.246Z,25.31
2017-08-30T18:13:09.084Z,25.23
2017-08-30T18:15:37.015Z,25.15
2017-08-30T18:18:04.941Z,25.11
2017-08-30T18:20:32.784Z,25.05
2017-08-30T18:23:00.566Z,25.04
2017-08-30T18:25:28.429Z,25.03
2017-08-30T18:27:56.345Z,25.03
2017-08-30T18:30:24.168Z,25.03
2017-08-30T18:32:51.949Z,25.01
2017-08-30T18:35:19.750Z,24.99
2017-08-30T18:37:47.482Z,24.91
2017-08-30T18:40:15.274Z,24.63
2017-08-30T18:42:43.000Z,24.36
2017-08-30T18:45:10.836Z,24.23
2017-08-30T18:47:38.592Z,24.12
2017-08-30T18:50:06.682Z,24.10
2017-08-30T18:52:34.491Z,24.10
2017-08-30T18:55:02.305Z,24.05
2017-08-30T18:57:30.120Z,23.98
2017-08-30T18:59:57.952Z,23.89
2017-08-30T19:02:25.746Z,23.84
2017-08-30T19:04:53.521Z,23.74
2017-08-30T19:07:21.342Z,23.58
2017-08-30T19:09:49.204Z,23.45
2017-08-30T19:12:17.137Z,23.37
2017-08-30T19:14:44.978Z,23.28
2017-08-30T19:17:12.906Z,23.21
2017-08-30T19:19:40.823Z,23.12
2017-08-30T19:22:08.673Z,22.92
2017-08-30T19:24:36.525Z,22.84
2017-08-30T19:27:04.432Z,22.76
2017-08-30T19:29:32.220Z,22.55
2017-08-30T19:32:00.109Z,22.35
2017-08-30T19:34:27.923Z,22.19
2017-08-30T19:36:55.735Z,22.06
2017-08-30T19:39:23.519Z,22.04
2017-08-30T19:41:51.294Z,22.07
2017-08-30T19:44:19.077Z,22.12
2017-08-30T19:46:46.857Z,22.22
2017-08-30T19:49:14.692Z,22.31
2017-08-30T19:51:42.573Z,22.36
2017-08-30T19:54:10.548Z,22.36
2017-08-30T19:56:38.326Z,22.35
2017-08-30T19:59:06.120Z,22.31
2017-08-30T20:01:34.004Z,22.27
2017-08-30T20:04:01.772Z,22.30
2017-08-30T20:06:29.604Z,22.40
2017-08-30T20:08:57.407Z,22.54
2017-08-30T20:11:25.244Z,22.63
2017-08-30T20:13:53.031Z,22.64
2017-08-30T20:16:20.861Z,22.60
2017-08-30T20:18:48.696Z,22.46
2017-08-30T20:21:16.677Z,22.34
2017-08-30T20:23:44.437Z,22.27
2017-08-30T20:26:12.354Z,22.21
2017-08-30T20:28:40.329Z,22.15
2017-08-30T20:31:08.243Z,22.14
2017-08-30T20:33:36.161Z,22.15
2017-08-30T20:36:04.069Z,22.16
2017-08-30T20:38:31.937Z,22.17
2017-08-30T20:40:59.747Z,22.16
2017-08-30T20:43:27.596Z,22.19
2017-08-30T20:45:55.409Z,22.19
2017-08-30T20:48:23.276Z,22.19
2017-08-30T20:50:51.108Z,22.19
2017-08-30T20:53:18.860Z,22.14
2017-08-30T20:55:46.651Z,22.09
2017-08-30T20:58:14.521Z,21.97
2017-08-30T21:00:42.372Z,21.89
2017-08-30T21:03:10.245Z,21.83
2017-08-30T21:05:38.020Z,21.79
2017-08-30T21:08:05.920Z,21.66
2017-08-30T21:10:33.684Z,21.59
2017-08-30T21:13:01.596Z,21.55
2017-08-30T21:15:29.361Z,21.54
2017-08-30T21:17:57.134Z,21.57
2017-08-30T21:20:24.973Z,21.61
2017-08-30T21:22:52.795Z,21.58
2017-08-30T21:25:20.650Z,21.52
2017-08-30T21:27:48.449Z,21.45
2017-08-30T21:30:16.329Z,21.46
2017-08-30T21:32:44.068Z,21.47
2017-08-30T21:35:11.874Z,21.51
2017-08-30T21:37:39.766Z,21.55
2017-08-30T21:40:08.074Z,21.57
2017-08-30T21:42:35.925Z,21.59
2017-08-30T21:45:03.828Z,21.59
2017-08-30T21:47:31.579Z,21.60
2017-08-30T21:49:59.467Z,21.56
2017-08-30T21:52:27.324Z,21.48
2017-08-30T21:54:55.200Z,21.37
2017-08-30T21:57:23.093Z,21.30
2017-08-30T21:59:50.940Z,21.26
2017-08-30T22:02:18.840Z,21.24
2017-08-30T22:04:46.586Z,21.20
2017-08-30T22:07:14.455Z,21.07
2017-08-30T22:09:42.321Z,21.01
2017-08-30T22:12:10.206Z,21.01
2017-08-30T22:14:38.064Z,21.07
2017-08-30T22:17:05.973Z,21.16
2017-08-30T22:19:33.820Z,21.25
2017-08-30T22:22:01.784Z,21.32
2017-08-30T22:24:29.637Z,21.38
2017-08-30T22:26:57.386Z,21.45
2017-08-30T22:29:25.292Z,21.52
2017-08-30T22:31:53.182Z,21.56
2017-08-30T22:34:21.056Z,21.56
2017-08-30T22:36:48.905Z,21.53
2017-08-30T22:39:16.783Z,21.50
2017-08-30T22:41:44.667Z,21.51
2017-08-30T22:44:12.589Z,21.52
2017-08-30T22:46:40.452Z,21.56
2017-08-30T22:49:08.339Z,21.59
2017-08-30T22:51:36.213Z,21.56
2017-08-30T22:54:04.121Z,21.55
2017-08-30T22:56:31.959Z,21.57
2017-08-30T22:58:59.813Z,21.57
2017-08-30T23:01:27.706Z,21.56
2017-08-30T23:03:55.561Z,21.56
2017-08-30T23:06:23.447Z,21.55
2017-08-30T23:08:51.302Z,21.55
2017-08-30T23:11:19.192Z,21.53
2017-08-30T23:13:47.056Z,21.47
2017-08-30T23:16:14.967Z,21.42
2017-08-30T23:18:42.825Z,21.42
2017-08-30T23:21:10.751Z,21.43
2017-08-30T23:23:38.600Z,21.44
2017-08-30T23:26:06.485Z,21.45
2017-08-30T23:28:34.341Z,21.44
2017-08-30T23:31:02.211Z,21.42
2017-08-30T23:33:30.073Z,21.43
2017-08-30T23:35:57.933Z,21.38
2017-08-30T23:38:25.821Z,21.28
2017-08-30T23:40:53.590Z,21.22
2017-08-30T23:43:21.420Z,21.10
2017-08-30T23:45:49.269Z,20.99
2017-08-30T23:48:17.208Z,20.89
2017-08-30T23:50:45.051Z,20.81
2017-08-30T23:53:12.940Z,20.78
2017-08-30T23:55:40.841Z,20.74
2017-08-30T23:58:08.712Z,20.71
